Time;durP1;ratioP1;P1;durP2;ratioP2;P2;SDS_P1;SDS_P2;PMS_P1;PMS_P2;Temp;Humidity;BMP_temperature;BMP_pressure;BME280_temperature;BME280_humidity;BME280_pressure;Samples;Min_cycle;Max_cycle;Signal;HPM_P1;HPM_P2
2023/02/06 00:00:33;;;;;;;;;;;;;;;-2.91;90.68;103135.42;111025;1211;124825;-60
2023/02/06 00:02:58;;;;;;;;;;;;;;;-2.90;90.94;103129.70;111302;1209;97492;-58
2023/02/06 00:05:23;;;;;;;;;;;;;;;-2.90;90.63;103125.33;111111;1212;126138;-59
2023/02/06 00:07:49;;;;;;;;;;;;;;;-2.88;90.92;103127.85;111283;1208;96224;-61
2023/02/06 00:10:14;;;;;;;;;;;;;;;-2.87;90.81;103131.05;111261;1212;96335;-61
2023/02/06 00:12:39;;;;;;;;;;;;;;;-2.88;90.99;103137.34;111041;1212;124850;-60
2023/02/06 00:15:05;;;;;;;;;;;;;;;-2.87;90.67;103138.23;111264;1209;96282;-60
2023/02/06 00:17:33;;;;;;;;;;;;;;;-2.88;90.89;103125.27;111095;1208;125068;-60
2023/02/06 00:19:58;;;;;;;;;;;;;;;-2.88;90.94;103119.11;111193;1212;96349;-60
2023/02/06 00:22:24;;;;;;;;;;;;;;;-2.88;91.11;103117.40;111190;1209;96857;-59
2023/02/06 00:24:49;;;;;;;;;;;;;;;-2.85;90.93;103116.65;111159;1212;124266;-59
2023/02/06 00:27:14;;;;;;;;;;;;;;;-2.85;91.11;103118.94;111193;1209;96199;-59
2023/02/06 00:29:39;;;;;;;;;;;;;;;-2.84;90.97;103130.18;111220;1212;124522;-59
2023/02/06 00:32:04;;;;;;;;;;;;;;;-2.85;90.98;103134.53;111229;1209;94854;-59
2023/02/06 00:34:29;;;;;;;;;;;;;;;-2.86;90.77;103131.84;111141;1209;131272;-62
2023/02/06 00:36:55;;;;;;;;;;;;;;;-2.86;90.94;103127.64;111224;1209;93936;-60
2023/02/06 00:39:20;;;;;;;;;;;;;;;-2.87;91.02;103122.54;111193;1209;96327;-59
2023/02/06 00:41:45;;;;;;;;;;;;;;;-2.89;91.25;103128.20;111140;1223;124841;-59
2023/02/06 00:44:11;;;;;;;;;;;;;;;-2.89;91.22;103131.67;111189;1209;96343;-59
2023/02/06 00:46:36;;;;;;;;;;;;;;;-2.87;91.33;103134.06;111223;1209;124364;-58
2023/02/06 00:49:01;;;;;;;;;;;;;;;-2.87;91.19;103134.05;111227;1209;96253;-59
2023/02/06 00:51:26;;;;;;;;;;;;;;;-2.88;91.29;103136.42;111252;1212;96292;-59
2023/02/06 00:53:51;;;;;;;;;;;;;;;-2.88;91.38;103141.02;111125;1211;124946;-59
2023/02/06 00:56:17;;;;;;;;;;;;;;;-2.87;91.16;103139.86;111184;1212;96315;-59
2023/02/06 00:58:42;;;;;;;;;;;;;;;-2.87;91.14;103129.36;111192;1209;126501;-60
2023/02/06 01:01:07;;;;;;;;;;;;;;;-2.86;91.10;103120.30;111204;1212;96306;-60
2023/02/06 01:03:33;;;;;;;;;;;;;;;-2.87;91.26;103120.24;111275;1212;96289;-58
2023/02/06 01:05:58;;;;;;;;;;;;;;;-2.87;91.30;103130.06;111134;1212;125001;-59
2023/02/06 01:08:23;;;;;;;;;;;;;;;-2.85;91.37;103125.24;111198;1209;95155;-58
2023/02/06 01:10:48;;;;;;;;;;;;;;;-2.85;91.25;103120.88;111180;1209;126674;-58
2023/02/06 01:13:14;;;;;;;;;;;;;;;-2.88;91.22;103117.38;111175;1209;96298;-58
2023/02/06 01:15:39;;;;;;;;;;;;;;;-2.88;91.50;103119.64;111098;1212;96511;-59
2023/02/06 01:18:04;;;;;;;;;;;;;;;-2.87;91.32;103133.54;110982;1209;124627;-58
2023/02/06 01:20:30;;;;;;;;;;;;;;;-2.87;91.47;103130.73;111204;1212;96676;-58
2023/02/06 01:22:55;;;;;;;;;;;;;;;-2.89;91.31;103124.86;111117;1209;125684;-58
2023/02/06 01:25:21;;;;;;;;;;;;;;;-2.89;91.36;103126.77;111176;1210;96305;-58
2023/02/06 01:27:46;;;;;;;;;;;;;;;-2.87;91.65;103132.27;111213;1209;94946;-59
2023/02/06 01:30:12;;;;;;;;;;;;;;;-2.87;91.58;103131.78;111062;1209;124599;-59
2023/02/06 01:32:38;;;;;;;;;;;;;;;-2.86;91.44;103124.99;111222;1212;96305;-58
2023/02/06 01:35:04;;;;;;;;;;;;;;;-2.84;91.61;103118.08;111084;1208;124901;-60
2023/02/06 01:37:29;;;;;;;;;;;;;;;-2.80;91.65;103121.98;111249;1208;96327;-60
2023/02/06 01:39:54;;;;;;;;;;;;;;;-2.79;91.48;103125.92;111289;1212;96337;-60
2023/02/06 01:42:19;;;;;;;;;;;;;;;-2.77;91.66;103121.83;111098;1209;124351;-60
2023/02/06 01:44:45;;;;;;;;;;;;;;;-2.76;91.28;103116.95;111260;1209;95519;-60
2023/02/06 01:47:10;;;;;;;;;;;;;;;-2.77;91.65;103117.09;111085;1209;125315;-60
2023/02/06 01:49:38;;;;;;;;;;;;;;;-2.77;91.54;103115.88;111214;1212;96333;-60
2023/02/06 01:52:13;;;;;;;;;;;;;;;-2.76;91.58;103113.43;111263;1212;96352;-59
2023/02/06 01:54:39;;;;;;;;;;;;;;;-2.74;91.63;103108.13;111115;1209;124211;-59
2023/02/06 01:57:07;;;;;;;;;;;;;;;-2.73;91.53;103106.43;111184;1208;96224;-59
2023/02/06 01:59:34;;;;;;;;;;;;;;;-2.72;91.53;103103.69;111106;1209;125219;-59
2023/02/06 02:01:59;;;;;;;;;;;;;;;-2.72;91.49;103098.11;111187;1209;96704;-59
2023/02/06 02:04:26;;;;;;;;;;;;;;;-2.70;91.46;103095.38;111270;1209;96240;-59
2023/02/06 02:07:14;;;;;;;;;;;;;;;-2.70;91.38;103095.41;111113;1212;124251;-59
2023/02/06 02:09:39;;;;;;;;;;;;;;;-2.70;91.49;103091.88;111200;1212;109374;-59
2023/02/06 02:12:05;;;;;;;;;;;;;;;-2.69;91.60;103090.38;111060;1212;124905;-60
2023/02/06 02:14:30;;;;;;;;;;;;;;;-2.66;91.51;103085.09;111264;1208;94820;-60
2023/02/06 02:16:58;;;;;;;;;;;;;;;-2.63;91.51;103081.73;111113;1207;126185;-59
2023/02/06 02:19:43;;;;;;;;;;;;;;;-2.61;91.53;103078.15;111141;1209;97037;-59
2023/02/06 02:22:11;;;;;;;;;;;;;;;-2.62;91.40;103078.12;111126;1210;100264;-59
2023/02/06 02:24:46;;;;;;;;;;;;;;;-2.63;91.55;103077.91;111063;1209;125131;-59
2023/02/06 02:27:26;;;;;;;;;;;;;;;-2.62;91.48;103069.35;111156;1211;96429;-59
2023/02/06 02:30:15;;;;;;;;;;;;;;;-2.60;91.40;103069.25;111049;1220;124758;-60
2023/02/06 02:32:56;;;;;;;;;;;;;;;-2.60;91.66;103062.25;111149;1208;110609;-59
2023/02/06 02:35:46;;;;;;;;;;;;;;;-2.59;91.65;103061.24;110972;1209;124457;-58
2023/02/06 02:38:17;;;;;;;;;;;;;;;-2.58;91.54;103059.35;111169;1209;108210;-58
2023/02/06 02:40:53;;;;;;;;;;;;;;;-2.59;91.61;103056.52;111085;1209;124838;-59
2023/02/06 02:43:40;;;;;;;;;;;;;;;-2.60;91.76;103054.56;111173;1209;96275;-58
2023/02/06 02:46:06;;;;;;;;;;;;;;;-2.59;91.57;103050.72;111215;1211;109035;-58
2023/02/06 02:48:39;;;;;;;;;;;;;;;-2.58;91.58;103050.77;111078;1209;125356;-58
2023/02/06 02:51:06;;;;;;;;;;;;;;;-2.60;91.61;103043.36;111119;1209;107202;-59
2023/02/06 02:53:31;;;;;;;;;;;;;;;-2.63;91.69;103040.44;111047;1212;124742;-59
2023/02/06 02:55:56;;;;;;;;;;;;;;;-2.65;91.81;103033.17;111270;1209;96921;-59
2023/02/06 02:58:25;;;;;;;;;;;;;;;-2.65;91.59;103026.34;111165;1212;96342;-59
2023/02/06 03:00:54;;;;;;;;;;;;;;;-2.66;91.69;103029.79;111294;1208;124493;-60
2023/02/06 03:03:22;;;;;;;;;;;;;;;-2.67;91.65;103027.81;111239;1208;96250;-60
2023/02/06 03:06:03;;;;;;;;;;;;;;;-2.69;91.47;103022.30;111123;1207;125269;-59
2023/02/06 03:08:45;;;;;;;;;;;;;;;-2.71;91.86;103020.09;111147;1209;110414;-59
2023/02/06 03:11:18;;;;;;;;;;;;;;;-2.74;91.64;103015.92;111217;1212;125429;-59
2023/02/06 03:13:50;;;;;;;;;;;;;;;-2.76;91.59;103008.48;111210;1209;106505;-59
2023/02/06 03:16:18;;;;;;;;;;;;;;;-2.78;91.70;103010.30;111198;1208;96282;-58
2023/02/06 03:18:47;;;;;;;;;;;;;;;-2.80;91.60;103013.89;111102;1209;125042;-59
2023/02/06 03:21:15;;;;;;;;;;;;;;;-2.79;91.64;103015.80;111227;1211;110523;-58
2023/02/06 03:23:41;;;;;;;;;;;;;;;-2.84;91.65;103015.77;111112;1212;124677;-59
2023/02/06 03:26:09;;;;;;;;;;;;;;;-2.89;91.52;103024.98;111215;1209;96230;-58
2023/02/06 03:28:36;;;;;;;;;;;;;;;-2.90;91.75;103030.16;111163;1211;124985;-58
2023/02/06 03:31:04;;;;;;;;;;;;;;;-2.91;91.89;103034.30;111222;1208;94022;-58
2023/02/06 03:33:32;;;;;;;;;;;;;;;-2.95;91.64;103030.64;111232;1212;109899;-58
2023/02/06 03:35:58;;;;;;;;;;;;;;;-2.96;91.55;103023.23;111150;1212;125388;-58
2023/02/06 03:38:24;;;;;;;;;;;;;;;-2.96;91.54;103022.73;111173;1212;96256;-58
2023/02/06 03:40:51;;;;;;;;;;;;;;;-2.96;91.85;103027.63;111182;1209;124827;-58
2023/02/06 03:43:18;;;;;;;;;;;;;;;-2.96;91.69;103031.28;111215;1212;108225;-58
2023/02/06 03:45:50;;;;;;;;;;;;;;;-2.95;91.65;103028.86;111200;1208;95244;-59
2023/02/06 03:48:36;;;;;;;;;;;;;;;-2.96;91.57;103020.61;111142;1209;124469;-58
2023/02/06 03:51:04;;;;;;;;;;;;;;;-2.98;91.74;103022.95;111226;1207;96299;-59
2023/02/06 03:53:30;;;;;;;;;;;;;;;-2.98;91.79;103026.44;111078;1212;125452;-59
2023/02/06 03:55:58;;;;;;;;;;;;;;;-2.99;91.76;103030.27;111200;1209;96292;-58
2023/02/06 03:58:23;;;;;;;;;;;;;;;-2.98;91.82;103028.22;111200;1209;96230;-59
2023/02/06 04:00:48;;;;;;;;;;;;;;;-2.99;91.50;103020.80;111217;1212;124817;-60
2023/02/06 04:03:14;;;;;;;;;;;;;;;-3.01;91.69;103014.91;111203;1209;96215;-60
2023/02/06 04:05:39;;;;;;;;;;;;;;;-3.01;91.64;103018.93;111098;1212;125462;-60
2023/02/06 04:08:05;;;;;;;;;;;;;;;-3.03;91.45;103022.37;111231;1208;96237;-60
2023/02/06 04:10:30;;;;;;;;;;;;;;;-3.05;91.70;103022.45;111071;1210;125773;-61
2023/02/06 04:12:55;;;;;;;;;;;;;;;-3.05;91.84;103020.83;111368;1208;94671;-60
2023/02/06 04:15:21;;;;;;;;;;;;;;;-3.07;91.75;103033.34;111143;1211;100027;-60
2023/02/06 04:17:46;;;;;;;;;;;;;;;-3.09;91.52;103033.95;111051;1208;124911;-60
2023/02/06 04:20:12;;;;;;;;;;;;;;;-3.08;91.55;103032.08;111201;1210;96325;-60
2023/02/06 04:22:37;;;;;;;;;;;;;;;-3.07;91.37;103035.77;111071;1209;126830;-63
2023/02/06 04:25:02;;;;;;;;;;;;;;;-3.07;91.72;103041.55;111209;1212;96267;-62
2023/02/06 04:27:28;;;;;;;;;;;;;;;-3.07;91.40;103039.45;111156;1209;96230;-59
2023/02/06 04:29:53;;;;;;;;;;;;;;;-3.07;91.82;103038.78;111097;1211;125302;-60
2023/02/06 04:32:18;;;;;;;;;;;;;;;-3.08;91.72;103040.98;111289;1211;94786;-59
2023/02/06 04:34:43;;;;;;;;;;;;;;;-3.07;91.87;103033.70;111218;1208;96308;-62
2023/02/06 04:37:11;;;;;;;;;;;;;;;-3.06;91.79;103030.27;111261;1207;94860;-61
2023/02/06 04:39:37;;;;;;;;;;;;;;;-3.05;91.91;103030.82;111155;1209;110115;-62
2023/02/06 04:42:03;;;;;;;;;;;;;;;-3.03;91.74;103028.46;111129;1210;125241;-62
2023/02/06 04:44:28;;;;;;;;;;;;;;;-3.02;91.73;103028.35;111244;1212;96369;-62
2023/02/06 04:46:54;;;;;;;;;;;;;;;-3.03;91.97;103026.58;111129;1209;125971;-61
2023/02/06 04:49:19;;;;;;;;;;;;;;;-3.02;91.71;103020.98;111221;1212;96343;-60
2023/02/06 04:51:44;;;;;;;;;;;;;;;-3.02;91.59;103018.23;111292;1208;96287;-61
2023/02/06 04:54:11;;;;;;;;;;;;;;;-3.00;91.67;103018.99;111059;1209;124709;-60
2023/02/06 04:56:36;;;;;;;;;;;;;;;-3.00;91.91;103015.83;111171;1209;96231;-60
2023/02/06 04:59:01;;;;;;;;;;;;;;;-3.01;91.55;103020.34;111220;1208;124731;-61
2023/02/06 05:01:27;;;;;;;;;;;;;;;-3.03;91.33;103021.33;111200;1209;96378;-60
2023/02/06 05:03:52;;;;;;;;;;;;;;;-3.03;91.32;103020.23;111275;1212;96228;-61
2023/02/06 05:06:17;;;;;;;;;;;;;;;-3.04;91.53;103023.34;111226;1209;96198;-62
2023/02/06 05:08:42;;;;;;;;;;;;;;;-3.06;91.62;103016.06;111203;1211;96339;-61
2023/02/06 05:11:07;;;;;;;;;;;;;;;-3.08;91.40;103013.01;111134;1209;125282;-60
2023/02/06 05:13:33;;;;;;;;;;;;;;;-3.10;91.40;103014.15;111190;1209;96353;-60
2023/02/06 05:16:25;;;;;;;;;;;;;;;-3.10;91.48;103016.73;111315;1209;94745;-61
2023/02/06 05:18:54;;;;;;;;;;;;;;;-3.13;91.66;103013.83;111064;1212;124847;-60
2023/02/06 05:21:19;;;;;;;;;;;;;;;-3.12;91.70;103008.94;111098;1212;96337;-61
2023/02/06 05:23:44;;;;;;;;;;;;;;;-3.12;91.56;103012.82;111161;1208;124965;-61
2023/02/06 05:26:09;;;;;;;;;;;;;;;-3.15;91.46;103008.65;111250;1211;96343;-60
2023/02/06 05:28:35;;;;;;;;;;;;;;;-3.17;91.53;103012.38;111074;1209;125268;-61
2023/02/06 05:31:00;;;;;;;;;;;;;;;-3.18;91.53;103017.90;111290;1209;96284;-61
2023/02/06 05:33:26;;;;;;;;;;;;;;;-3.18;91.45;103016.70;111183;1209;95189;-60
2023/02/06 05:35:51;;;;;;;;;;;;;;;-3.19;91.37;103016.80;111204;1211;96365;-60
2023/02/06 05:38:16;;;;;;;;;;;;;;;-3.20;91.36;103021.67;111176;1209;95093;-60
2023/02/06 05:40:42;;;;;;;;;;;;;;;-3.20;91.44;103016.95;111086;1211;125095;-60
2023/02/06 05:43:07;;;;;;;;;;;;;;;-3.20;91.24;103016.23;111241;1209;96320;-60
2023/02/06 05:45:32;;;;;;;;;;;;;;;-3.23;91.40;103009.77;111150;1212;95539;-61
2023/02/06 05:47:57;;;;;;;;;;;;;;;-3.25;91.39;103011.98;111089;1209;124471;-61
2023/02/06 05:50:23;;;;;;;;;;;;;;;-3.25;91.54;103022.60;111252;1208;96247;-61
2023/02/06 05:52:48;;;;;;;;;;;;;;;-3.27;91.30;103024.80;111124;1211;124660;-60
2023/02/06 05:55:15;;;;;;;;;;;;;;;-3.27;91.48;103027.27;111137;1212;96305;-63
2023/02/06 05:57:40;;;;;;;;;;;;;;;-3.27;91.11;103031.29;111207;1212;96414;-61
2023/02/06 06:00:06;;;;;;;;;;;;;;;-3.25;91.34;103033.45;111039;1209;125426;-61
2023/02/06 06:02:31;;;;;;;;;;;;;;;-3.24;91.51;103038.96;111341;1209;96334;-61
2023/02/06 06:04:56;;;;;;;;;;;;;;;-3.22;91.40;103036.59;111064;1209;124722;-60
2023/02/06 06:07:22;;;;;;;;;;;;;;;-3.20;91.42;103042.81;111131;1208;96301;-60
2023/02/06 06:09:48;;;;;;;;;;;;;;;-3.18;91.44;103045.70;111216;1210;96263;-60
2023/02/06 06:12:13;;;;;;;;;;;;;;;-3.16;91.48;103049.49;111288;1209;124988;-60
2023/02/06 06:14:38;;;;;;;;;;;;;;;-3.14;91.39;103050.63;111260;1209;96353;-61
2023/02/06 06:17:04;;;;;;;;;;;;;;;-3.13;91.38;103055.96;111130;1211;125573;-61
2023/02/06 06:19:29;;;;;;;;;;;;;;;-3.10;91.41;103054.85;111229;1208;96339;-60
2023/02/06 06:21:54;;;;;;;;;;;;;;;-3.09;91.44;103055.11;111229;1210;96254;-60
2023/02/06 06:24:19;;;;;;;;;;;;;;;-3.07;91.37;103060.98;111066;1209;125601;-60
2023/02/06 06:26:44;;;;;;;;;;;;;;;-3.04;91.17;103064.45;111312;1212;96410;-62
2023/02/06 06:29:09;;;;;;;;;;;;;;;-3.01;91.54;103066.88;111078;1212;124569;-60
2023/02/06 06:31:35;;;;;;;;;;;;;;;-2.99;91.42;103075.01;111259;1209;96245;-60
2023/02/06 06:34:00;;;;;;;;;;;;;;;-2.97;91.54;103078.27;111221;1209;96391;-61
2023/02/06 06:36:25;;;;;;;;;;;;;;;-2.95;91.54;103077.67;111264;1209;96283;-62
2023/02/06 06:38:50;;;;;;;;;;;;;;;-2.93;91.76;103080.06;111207;1208;94701;-60
2023/02/06 06:41:16;;;;;;;;;;;;;;;-2.93;91.45;103079.53;111127;1209;125002;-60
2023/02/06 06:43:42;;;;;;;;;;;;;;;-2.95;91.41;103079.41;111252;1211;96630;-59
2023/02/06 06:46:07;;;;;;;;;;;;;;;-2.96;91.69;103082.16;111256;1209;96483;-59
2023/02/06 06:48:33;;;;;;;;;;;;;;;-2.94;91.43;103080.16;111112;1208;124425;-59
2023/02/06 06:50:58;;;;;;;;;;;;;;;-2.93;91.61;103077.41;111239;1211;109759;-58
2023/02/06 06:53:24;;;;;;;;;;;;;;;-2.92;91.57;103080.09;111115;1212;125106;-59
2023/02/06 06:55:49;;;;;;;;;;;;;;;-2.92;91.48;103085.35;111251;1211;96297;-60
2023/02/06 06:58:14;;;;;;;;;;;;;;;-2.89;91.56;103091.77;111239;1211;96302;-60
2023/02/06 07:00:40;;;;;;;;;;;;;;;-2.87;91.82;103091.20;111175;1210;124348;-58
2023/02/06 07:03:05;;;;;;;;;;;;;;;-2.84;91.88;103092.76;111139;1209;107018;-58
2023/02/06 07:05:30;;;;;;;;;;;;;;;-2.80;91.62;103101.33;111152;1208;96341;-58
2023/02/06 07:07:56;;;;;;;;;;;;;;;-2.79;91.44;103101.22;111276;1211;96234;-59
2023/02/06 07:10:21;;;;;;;;;;;;;;;-2.78;91.70;103106.88;111081;1209;96241;-59
2023/02/06 07:12:47;;;;;;;;;;;;;;;-2.76;91.70;103106.29;111127;1209;124340;-59
2023/02/06 07:15:12;;;;;;;;;;;;;;;-2.72;91.75;103105.62;111143;1210;96851;-59
2023/02/06 07:17:38;;;;;;;;;;;;;;;-2.71;91.66;103103.02;111111;1209;124670;-59
2023/02/06 07:20:03;;;;;;;;;;;;;;;-2.74;91.62;103100.80;111232;1212;96313;-59
2023/02/06 07:22:28;;;;;;;;;;;;;;;-2.72;91.39;103101.95;111283;1208;96227;-60
2023/02/06 07:24:54;;;;;;;;;;;;;;;-2.70;91.52;103102.72;111174;1211;125284;-58
2023/02/06 07:27:19;;;;;;;;;;;;;;;-2.69;91.54;103102.96;111181;1211;99998;-59
2023/02/06 07:29:44;;;;;;;;;;;;;;;-2.66;91.91;103110.30;111076;1209;124896;-59
2023/02/06 07:32:10;;;;;;;;;;;;;;;-2.64;91.75;103117.06;111243;1209;96283;-59
2023/02/06 07:34:35;;;;;;;;;;;;;;;-2.63;91.84;103123.94;111214;1207;96448;-59
2023/02/06 07:37:01;;;;;;;;;;;;;;;-2.60;91.82;103127.91;111263;1211;96309;-62
2023/02/06 07:39:27;;;;;;;;;;;;;;;-2.60;91.80;103128.26;111100;1212;96339;-60
2023/02/06 07:41:52;;;;;;;;;;;;;;;-2.58;91.72;103125.52;111113;1208;125585;-59
2023/02/06 07:44:17;;;;;;;;;;;;;;;-2.53;91.92;103122.61;111238;1209;96316;-58
2023/02/06 07:46:43;;;;;;;;;;;;;;;-2.51;91.57;103121.33;111128;1208;125247;-59
2023/02/06 07:49:13;;;;;;;;;;;;;;;-2.51;91.55;103120.11;111188;1209;96397;-60
2023/02/06 07:51:39;;;;;;;;;;;;;;;-2.49;91.67;103115.33;111220;1209;96660;-59
2023/02/06 07:54:05;;;;;;;;;;;;;;;-2.47;91.41;103114.69;111112;1209;125497;-60
2023/02/06 07:56:30;;;;;;;;;;;;;;;-2.45;91.83;103114.11;111244;1209;96292;-59
2023/02/06 07:58:55;;;;;;;;;;;;;;;-2.43;91.99;103109.64;111087;1211;124690;-59
2023/02/06 08:01:20;;;;;;;;;;;;;;;-2.40;91.75;103107.55;111277;1209;96343;-59
2023/02/06 08:03:48;;;;;;;;;;;;;;;-2.37;91.88;103108.03;111222;1209;98678;-60
2023/02/06 08:06:14;;;;;;;;;;;;;;;-2.34;91.96;103105.21;111163;1209;108242;-58
2023/02/06 08:08:40;;;;;;;;;;;;;;;-2.28;92.03;103103.03;111299;1211;96333;-60
2023/02/06 08:11:06;;;;;;;;;;;;;;;-2.24;92.00;103100.23;111146;1211;124968;-60
2023/02/06 08:13:32;;;;;;;;;;;;;;;-2.24;91.87;103099.50;111124;1211;99123;-61
2023/02/06 08:15:58;;;;;;;;;;;;;;;-2.24;91.98;103100.06;111201;1212;94029;-61
2023/02/06 08:18:23;;;;;;;;;;;;;;;-2.19;91.99;103104.14;111094;1209;125151;-60
2023/02/06 08:20:48;;;;;;;;;;;;;;;-2.14;91.73;103109.64;111196;1209;96320;-59
2023/02/06 08:23:13;;;;;;;;;;;;;;;-2.10;92.25;103114.73;111132;1211;125915;-60
2023/02/06 08:25:38;;;;;;;;;;;;;;;-2.09;92.27;103115.30;111186;1209;97715;-59
2023/02/06 08:28:03;;;;;;;;;;;;;;;-2.07;91.93;103113.15;111244;1208;96311;-60
2023/02/06 08:30:31;;;;;;;;;;;;;;;-2.07;91.93;103108.90;111156;1209;124558;-60
2023/02/06 08:32:56;;;;;;;;;;;;;;;-2.07;91.77;103110.33;111179;1207;108044;-60
2023/02/06 08:35:21;;;;;;;;;;;;;;;-2.09;91.72;103108.16;111167;1209;96226;-60
2023/02/06 08:37:46;;;;;;;;;;;;;;;-2.06;91.78;103110.55;111272;1212;96455;-60
2023/02/06 08:40:11;;;;;;;;;;;;;;;-2.03;91.85;103109.65;111194;1209;96297;-60
2023/02/06 08:42:37;;;;;;;;;;;;;;;-2.03;91.98;103107.73;111085;1208;124889;-60
2023/02/06 08:45:02;;;;;;;;;;;;;;;-2.01;92.07;103104.86;111249;1209;96215;-59
2023/02/06 08:47:27;;;;;;;;;;;;;;;-1.93;91.97;103107.84;111096;1212;124608;-59
2023/02/06 08:49:53;;;;;;;;;;;;;;;-1.89;92.25;103108.94;111161;1208;105933;-59
2023/02/06 08:52:18;;;;;;;;;;;;;;;-1.82;92.31;103113.61;111124;1211;96368;-58
2023/02/06 08:54:44;;;;;;;;;;;;;;;-1.78;92.40;103121.15;111260;1209;96186;-59
2023/02/06 08:57:11;;;;;;;;;;;;;;;-1.74;92.40;103125.21;111136;1211;96759;-58
2023/02/06 08:59:37;;;;;;;;;;;;;;;-1.69;92.16;103128.79;111072;1209;124321;-59
2023/02/06 09:02:02;;;;;;;;;;;;;;;-1.63;92.15;103130.80;111155;1212;96296;-60
2023/02/06 09:04:28;;;;;;;;;;;;;;;-1.58;92.27;103123.48;111223;1211;97063;-60
2023/02/06 09:06:53;;;;;;;;;;;;;;;-1.51;92.35;103121.89;111101;1211;124309;-60
2023/02/06 09:09:19;;;;;;;;;;;;;;;-1.43;92.47;103126.81;111210;1209;96195;-60
2023/02/06 09:11:44;;;;;;;;;;;;;;;-1.37;92.43;103126.41;111096;1212;124762;-60
2023/02/06 09:14:12;;;;;;;;;;;;;;;-1.34;92.26;103123.54;111145;1209;97732;-59
2023/02/06 09:16:37;;;;;;;;;;;;;;;-1.32;92.23;103117.34;111114;1208;124801;-59
2023/02/06 09:19:03;;;;;;;;;;;;;;;-1.24;92.10;103112.04;111197;1209;97030;-60
2023/02/06 09:21:29;;;;;;;;;;;;;;;-1.18;92.41;103111.61;111205;1208;96219;-59
2023/02/06 09:23:57;;;;;;;;;;;;;;;-1.14;92.32;103112.00;111061;1211;124749;-59
2023/02/06 09:26:25;;;;;;;;;;;;;;;-1.09;92.50;103112.23;111202;1209;96759;-59
2023/02/06 09:28:55;;;;;;;;;;;;;;;-1.04;92.17;103102.23;111080;1209;124769;-59
2023/02/06 09:31:20;;;;;;;;;;;;;;;-0.96;92.29;103097.67;111132;1209;96175;-60
2023/02/06 09:33:45;;;;;;;;;;;;;;;-0.87;92.50;103096.14;111254;1211;96347;-60
2023/02/06 09:36:12;;;;;;;;;;;;;;;-0.81;92.36;103096.04;111195;1209;95044;-60
2023/02/06 09:38:38;;;;;;;;;;;;;;;-0.74;92.43;103103.54;111205;1209;96740;-60
2023/02/06 09:41:05;;;;;;;;;;;;;;;-0.66;92.47;103105.98;111054;1208;124398;-60
2023/02/06 09:43:31;;;;;;;;;;;;;;;-0.54;92.35;103111.39;111160;1210;96311;-60
2023/02/06 09:45:59;;;;;;;;;;;;;;;-0.45;92.36;103114.39;111282;1207;96282;-60
2023/02/06 09:48:26;;;;;;;;;;;;;;;-0.42;92.31;103118.59;111028;1209;126380;-60
2023/02/06 09:51:01;;;;;;;;;;;;;;;-0.35;92.32;103118.33;111124;1212;96506;-59
2023/02/06 09:53:49;;;;;;;;;;;;;;;-0.24;92.56;103122.99;111150;1211;96289;-60
2023/02/06 09:56:17;;;;;;;;;;;;;;;-0.14;92.54;103129.04;111167;1212;109748;-60
2023/02/06 09:58:42;;;;;;;;;;;;;;;-0.03;92.60;103130.87;111053;1212;124817;-60
2023/02/06 10:01:18;;;;;;;;;;;;;;;-0.01;92.48;103130.42;111170;1209;96238;-60
2023/02/06 10:03:46;;;;;;;;;;;;;;;-0.00;92.40;103129.92;111232;1209;96685;-60
2023/02/06 10:06:22;;;;;;;;;;;;;;;-0.03;92.20;103130.72;111115;1212;125204;-60
2023/02/06 10:09:06;;;;;;;;;;;;;;;-0.05;92.27;103133.64;111166;1211;109990;-60
2023/02/06 10:11:47;;;;;;;;;;;;;;;0.01;92.15;103134.70;111192;1212;99980;-60
2023/02/06 10:14:31;;;;;;;;;;;;;;;-0.01;92.16;103132.34;111152;1209;107924;-60
2023/02/06 10:16:59;;;;;;;;;;;;;;;-0.07;92.02;103123.52;111193;1210;96329;-60
2023/02/06 10:19:45;;;;;;;;;;;;;;;-0.10;92.13;103119.70;111161;1212;96451;-60
2023/02/06 10:22:14;;;;;;;;;;;;;;;-0.09;92.14;103119.02;111139;1208;110738;-62
2023/02/06 10:24:48;;;;;;;;;;;;;;;-0.06;91.92;103115.48;111098;1209;125692;-61
2023/02/06 10:27:14;;;;;;;;;;;;;;;-0.03;91.79;103108.04;111147;1209;107514;-60
2023/02/06 10:29:40;;;;;;;;;;;;;;;0.03;92.03;103110.69;111063;1211;123899;-60
2023/02/06 10:32:06;;;;;;;;;;;;;;;0.10;91.91;103109.19;111150;1209;96173;-60
2023/02/06 10:34:54;;;;;;;;;;;;;;;0.18;92.08;103108.80;111104;1211;99725;-60
2023/02/06 10:37:38;;;;;;;;;;;;;;;0.32;92.10;103099.86;110980;1212;108349;-60
2023/02/06 10:40:03;;;;;;;;;;;;;;;0.37;92.03;103098.30;111123;1211;96233;-60
2023/02/06 10:42:38;;;;;;;;;;;;;;;0.38;91.97;103099.02;111029;1212;125041;-60
2023/02/06 10:45:13;;;;;;;;;;;;;;;0.36;91.18;103100.73;111210;1209;110251;-59
2023/02/06 10:47:46;;;;;;;;;;;;;;;0.30;91.10;103102.42;110967;1209;125728;-60
2023/02/06 10:50:11;;;;;;;;;;;;;;;0.30;91.57;103101.58;111124;1211;107530;-60
2023/02/06 10:52:38;;;;;;;;;;;;;;;0.36;91.48;103099.30;111009;1209;210120;-61
2023/02/06 10:55:12;;;;;;;;;;;;;;;0.35;91.48;103099.98;111347;1211;96339;-59
2023/02/06 10:57:38;;;;;;;;;;;;;;;0.27;91.28;103096.53;111152;1209;100161;-59
2023/02/06 11:00:03;;;;;;;;;;;;;;;0.34;91.29;103097.31;111017;1209;125472;-59
2023/02/06 11:02:37;;;;;;;;;;;;;;;0.42;91.20;103093.73;111313;1209;96240;-59
2023/02/06 11:05:08;;;;;;;;;;;;;;;0.49;91.26;103089.58;111010;1212;125133;-60
2023/02/06 11:07:38;;;;;;;;;;;;;;;0.50;91.15;103087.54;111202;1209;103549;-62
2023/02/06 11:10:05;;;;;;;;;;;;;;;0.46;91.02;103085.27;111158;1211;106575;-59
2023/02/06 11:12:34;;;;;;;;;;;;;;;0.32;90.63;103083.16;111119;1209;125590;-59
2023/02/06 11:15:02;;;;;;;;;;;;;;;0.29;90.68;103082.88;111265;1209;96221;-59
2023/02/06 11:17:27;;;;;;;;;;;;;;;0.28;90.71;103084.42;111024;1223;125218;-60
2023/02/06 11:20:12;;;;;;;;;;;;;;;0.23;90.07;103081.25;111194;1209;96249;-59
2023/02/06 11:22:37;;;;;;;;;;;;;;;0.22;90.29;103086.48;111078;1209;125205;-59
2023/02/06 11:25:06;;;;;;;;;;;;;;;0.21;90.19;103089.61;111255;1209;94781;-59
2023/02/06 11:27:32;;;;;;;;;;;;;;;0.25;90.09;103090.45;111170;1209;96330;-60
2023/02/06 11:30:00;;;;;;;;;;;;;;;0.30;90.13;103088.88;111090;1212;125674;-60
2023/02/06 11:32:29;;;;;;;;;;;;;;;0.29;90.04;103084.61;111122;1209;96334;-60
2023/02/06 11:34:56;;;;;;;;;;;;;;;0.21;89.58;103091.87;111158;1211;96330;-60
2023/02/06 11:37:32;;;;;;;;;;;;;;;0.17;89.51;103097.00;111048;1209;96240;-60
2023/02/06 11:40:24;;;;;;;;;;;;;;;0.16;89.53;103103.12;111135;1209;96241;-60
2023/02/06 11:42:51;;;;;;;;;;;;;;;0.12;89.36;103110.14;111037;1211;124786;-59
2023/02/06 11:45:22;;;;;;;;;;;;;;;0.11;89.41;103106.97;111183;1209;96224;-59
2023/02/06 11:47:48;;;;;;;;;;;;;;;0.11;89.14;103105.19;111097;1212;125262;-60
2023/02/06 11:50:13;;;;;;;;;;;;;;;0.11;89.36;103104.34;111097;1210;96204;-59
2023/02/06 11:52:39;;;;;;;;;;;;;;;0.15;89.28;103100.95;111132;1209;125126;-59
2023/02/06 11:55:05;;;;;;;;;;;;;;;0.16;89.33;103100.48;111198;1212;94060;-58
2023/02/06 11:57:32;;;;;;;;;;;;;;;0.18;89.14;103102.83;111149;1212;96339;-59
2023/02/06 12:00:17;;;;;;;;;;;;;;;0.21;89.07;103103.64;111181;1208;125081;-61
2023/02/06 12:02:48;;;;;;;;;;;;;;;0.27;89.17;103102.85;111177;1209;96230;-58
2023/02/06 12:05:15;;;;;;;;;;;;;;;0.35;88.78;103099.60;111245;1211;109835;-59
2023/02/06 12:07:40;;;;;;;;;;;;;;;0.42;88.98;103096.36;111241;1210;95099;-59
2023/02/06 12:10:11;;;;;;;;;;;;;;;0.49;88.35;103095.91;111290;1209;96240;-59
2023/02/06 12:12:39;;;;;;;;;;;;;;;0.49;88.40;103085.39;111113;1208;124843;-59
2023/02/06 12:15:17;;;;;;;;;;;;;;;0.51;88.63;103087.03;111202;1211;96781;-59
2023/02/06 12:17:54;;;;;;;;;;;;;;;0.50;88.34;103086.09;111067;1209;124492;-59
2023/02/06 12:20:25;;;;;;;;;;;;;;;0.48;88.02;103085.33;111163;1211;108450;-60
2023/02/06 12:22:54;;;;;;;;;;;;;;;0.47;87.59;103083.02;111050;1209;123968;-59
2023/02/06 12:25:31;;;;;;;;;;;;;;;0.50;87.89;103083.65;111194;1209;95773;-61